sensor_id;sensor_type;location;lat;lon;timestamp;P1;durP1;ratioP1;P2;durP2;ratioP2
75603;SDS011;64187;51.010;13.792;2024-03-06T00:02:29;24.75;;;13.52;;
75603;SDS011;64187;51.010;13.792;2024-03-06T00:07:28;29.25;;;14.15;;
75603;SDS011;64187;51.010;13.792;2024-03-06T00:12:27;29.38;;;13.73;;
75603;SDS011;64187;51.010;13.792;2024-03-06T00:17:26;24.83;;;14.07;;
75603;SDS011;64187;51.010;13.792;2024-03-06T00:22:26;27.38;;;13.77;;
75603;SDS011;64187;51.010;13.792;2024-03-06T00:27:25;23.55;;;12.57;;
75603;SDS011;64187;51.010;13.792;2024-03-06T00:32:24;28.63;;;14.27;;
75603;SDS011;64187;51.010;13.792;2024-03-06T00:37:22;26.67;;;14.35;;
75603;SDS011;64187;51.010;13.792;2024-03-06T00:42:21;27.52;;;13.35;;
75603;SDS011;64187;51.010;13.792;2024-03-06T00:47:20;27.63;;;14.13;;
75603;SDS011;64187;51.010;13.792;2024-03-06T00:52:20;27.45;;;13.80;;
75603;SDS011;64187;51.010;13.792;2024-03-06T00:57:19;28.10;;;13.95;;
75603;SDS011;64187;51.010;13.792;2024-03-06T01:02:18;28.65;;;14.38;;
75603;SDS011;64187;51.010;13.792;2024-03-06T01:07:16;30.60;;;13.90;;
75603;SDS011;64187;51.010;13.792;2024-03-06T01:12:15;27.83;;;13.57;;
75603;SDS011;64187;51.010;13.792;2024-03-06T01:17:14;28.80;;;14.20;;
75603;SDS011;64187;51.010;13.792;2024-03-06T01:22:13;30.40;;;14.73;;
75603;SDS011;64187;51.010;13.792;2024-03-06T01:27:12;31.85;;;14.45;;
75603;SDS011;64187;51.010;13.792;2024-03-06T01:32:11;26.73;;;14.43;;
75603;SDS011;64187;51.010;13.792;2024-03-06T01:37:10;29.42;;;14.05;;
75603;SDS011;64187;51.010;13.792;2024-03-06T01:42:09;27.63;;;14.98;;
75603;SDS011;64187;51.010;13.792;2024-03-06T01:47:08;30.25;;;14.40;;
75603;SDS011;64187;51.010;13.792;2024-03-06T01:52:07;29.27;;;15.20;;
75603;SDS011;64187;51.010;13.792;2024-03-06T01:57:09;29.58;;;13.82;;
75603;SDS011;64187;51.010;13.792;2024-03-06T02:02:11;28.42;;;14.95;;
75603;SDS011;64187;51.010;13.792;2024-03-06T02:07:10;27.83;;;13.50;;
75603;SDS011;64187;51.010;13.792;2024-03-06T02:12:11;31.15;;;15.23;;
75603;SDS011;64187;51.010;13.792;2024-03-06T02:17:11;28.65;;;14.88;;
75603;SDS011;64187;51.010;13.792;2024-03-06T02:22:10;27.42;;;15.90;;
75603;SDS011;64187;51.010;13.792;2024-03-06T02:27:10;31.25;;;13.95;;
75603;SDS011;64187;51.010;13.792;2024-03-06T02:32:08;31.90;;;14.85;;
75603;SDS011;64187;51.010;13.792;2024-03-06T02:37:07;27.60;;;14.07;;
75603;SDS011;64187;51.010;13.792;2024-03-06T02:42:06;30.10;;;15.02;;
75603;SDS011;64187;51.010;13.792;2024-03-06T02:47:05;27.17;;;14.80;;
75603;SDS011;64187;51.010;13.792;2024-03-06T02:52:04;31.67;;;13.95;;
75603;SDS011;64187;51.010;13.792;2024-03-06T02:57:03;31.05;;;14.43;;
75603;SDS011;64187;51.010;13.792;2024-03-06T03:02:02;26.38;;;13.20;;
75603;SDS011;64187;51.010;13.792;2024-03-06T03:07:02;26.27;;;13.93;;
75603;SDS011;64187;51.010;13.792;2024-03-06T03:12:00;25.20;;;14.30;;
75603;SDS011;64187;51.010;13.792;2024-03-06T03:17:02;25.95;;;12.90;;
75603;SDS011;64187;51.010;13.792;2024-03-06T03:22:04;25.98;;;13.00;;
75603;SDS011;64187;51.010;13.792;2024-03-06T03:27:03;27.10;;;14.38;;
75603;SDS011;64187;51.010;13.792;2024-03-06T03:32:01;24.42;;;12.60;;
75603;SDS011;64187;51.010;13.792;2024-03-06T03:37:00;25.83;;;13.32;;
75603;SDS011;64187;51.010;13.792;2024-03-06T03:41:59;27.85;;;13.52;;
75603;SDS011;64187;51.010;13.792;2024-03-06T03:46:58;28.35;;;13.95;;
75603;SDS011;64187;51.010;13.792;2024-03-06T03:51:57;33.42;;;13.82;;
75603;SDS011;64187;51.010;13.792;2024-03-06T03:56:56;29.63;;;13.50;;
75603;SDS011;64187;51.010;13.792;2024-03-06T04:01:57;29.00;;;13.85;;
75603;SDS011;64187;51.010;13.792;2024-03-06T04:06:56;28.00;;;13.68;;
75603;SDS011;64187;51.010;13.792;2024-03-06T04:11:58;23.23;;;11.85;;
75603;SDS011;64187;51.010;13.792;2024-03-06T04:16:57;27.27;;;14.07;;
75603;SDS011;64187;51.010;13.792;2024-03-06T04:21:55;27.02;;;13.63;;
75603;SDS011;64187;51.010;13.792;2024-03-06T04:26:54;25.48;;;12.82;;
75603;SDS011;64187;51.010;13.792;2024-03-06T04:31:53;33.97;;;15.50;;
75603;SDS011;64187;51.010;13.792;2024-03-06T04:36:53;27.13;;;14.25;;
75603;SDS011;64187;51.010;13.792;2024-03-06T04:41:52;31.48;;;14.35;;
75603;SDS011;64187;51.010;13.792;2024-03-06T04:46:50;27.98;;;15.63;;
75603;SDS011;64187;51.010;13.792;2024-03-06T04:51:49;34.67;;;16.85;;
75603;SDS011;64187;51.010;13.792;2024-03-06T04:56:48;36.03;;;17.27;;
75603;SDS011;64187;51.010;13.792;2024-03-06T05:01:47;39.53;;;17.50;;
75603;SDS011;64187;51.010;13.792;2024-03-06T05:06:46;37.13;;;17.23;;
75603;SDS011;64187;51.010;13.792;2024-03-06T05:12:03;32.58;;;15.93;;
75603;SDS011;64187;51.010;13.792;2024-03-06T05:17:21;32.75;;;15.88;;
75603;SDS011;64187;51.010;13.792;2024-03-06T05:22:37;32.70;;;15.65;;
75603;SDS011;64187;51.010;13.792;2024-03-06T05:33:10;35.70;;;16.77;;
75603;SDS011;64187;51.010;13.792;2024-03-06T05:38:26;24.88;;;15.02;;
75603;SDS011;64187;51.010;13.792;2024-03-06T05:43:43;25.38;;;14.60;;
75603;SDS011;64187;51.010;13.792;2024-03-06T05:48:59;27.95;;;16.20;;
75603;SDS011;64187;51.010;13.792;2024-03-06T05:54:17;29.27;;;15.10;;
75603;SDS011;64187;51.010;13.792;2024-03-06T05:59:35;30.75;;;15.73;;
75603;SDS011;64187;51.010;13.792;2024-03-06T06:04:36;26.20;;;14.00;;
75603;SDS011;64187;51.010;13.792;2024-03-06T06:09:48;31.75;;;15.02;;
75603;SDS011;64187;51.010;13.792;2024-03-06T06:14:48;30.95;;;15.75;;
75603;SDS011;64187;51.010;13.792;2024-03-06T06:19:50;31.58;;;17.40;;
75603;SDS011;64187;51.010;13.792;2024-03-06T06:24:50;32.30;;;14.82;;
75603;SDS011;64187;51.010;13.792;2024-03-06T06:29:50;28.23;;;15.30;;
75603;SDS011;64187;51.010;13.792;2024-03-06T06:34:48;31.58;;;15.60;;
75603;SDS011;64187;51.010;13.792;2024-03-06T06:39:47;33.75;;;17.00;;
75603;SDS011;64187;51.010;13.792;2024-03-06T06:44:46;36.08;;;17.70;;
75603;SDS011;64187;51.010;13.792;2024-03-06T06:49:47;40.33;;;17.25;;
75603;SDS011;64187;51.010;13.792;2024-03-06T06:54:45;32.60;;;16.77;;
75603;SDS011;64187;51.010;13.792;2024-03-06T06:59:44;37.92;;;17.77;;
75603;SDS011;64187;51.010;13.792;2024-03-06T07:04:43;34.35;;;17.50;;
75603;SDS011;64187;51.010;13.792;2024-03-06T07:09:43;36.38;;;18.63;;
75603;SDS011;64187;51.010;13.792;2024-03-06T07:14:42;35.58;;;20.05;;
75603;SDS011;64187;51.010;13.792;2024-03-06T07:19:41;40.33;;;19.15;;
75603;SDS011;64187;51.010;13.792;2024-03-06T07:24:40;35.63;;;18.45;;
75603;SDS011;64187;51.010;13.792;2024-03-06T07:29:39;43.20;;;19.83;;
75603;SDS011;64187;51.010;13.792;2024-03-06T07:34:38;40.67;;;18.70;;
75603;SDS011;64187;51.010;13.792;2024-03-06T07:39:37;36.83;;;18.75;;
75603;SDS011;64187;51.010;13.792;2024-03-06T07:44:37;36.30;;;18.27;;
75603;SDS011;64187;51.010;13.792;2024-03-06T07:49:36;35.10;;;18.85;;
75603;SDS011;64187;51.010;13.792;2024-03-06T07:54:35;38.35;;;19.88;;
75603;SDS011;64187;51.010;13.792;2024-03-06T07:59:34;40.28;;;20.45;;
75603;SDS011;64187;51.010;13.792;2024-03-06T08:04:33;38.17;;;18.58;;
75603;SDS011;64187;51.010;13.792;2024-03-06T08:09:31;40.38;;;19.30;;
75603;SDS011;64187;51.010;13.792;2024-03-06T08:14:30;36.33;;;18.73;;
75603;SDS011;64187;51.010;13.792;2024-03-06T08:19:29;39.85;;;20.00;;
75603;SDS011;64187;51.010;13.792;2024-03-06T08:24:28;41.65;;;21.38;;
75603;SDS011;64187;51.010;13.792;2024-03-06T08:29:27;42.15;;;20.90;;
75603;SDS011;64187;51.010;13.792;2024-03-06T08:34:26;41.80;;;21.35;;
75603;SDS011;64187;51.010;13.792;2024-03-06T08:39:25;43.95;;;20.42;;
75603;SDS011;64187;51.010;13.792;2024-03-06T08:44:24;39.67;;;20.73;;
75603;SDS011;64187;51.010;13.792;2024-03-06T08:49:23;41.67;;;21.52;;
75603;SDS011;64187;51.010;13.792;2024-03-06T08:54:22;42.03;;;20.23;;
75603;SDS011;64187;51.010;13.792;2024-03-06T08:59:20;41.58;;;20.00;;
75603;SDS011;64187;51.010;13.792;2024-03-06T09:04:20;41.78;;;20.98;;
75603;SDS011;64187;51.010;13.792;2024-03-06T09:09:19;37.65;;;21.05;;
75603;SDS011;64187;51.010;13.792;2024-03-06T09:14:18;37.60;;;18.83;;
75603;SDS011;64187;51.010;13.792;2024-03-06T09:19:17;38.08;;;20.08;;
75603;SDS011;64187;51.010;13.792;2024-03-06T09:24:17;37.42;;;20.33;;
75603;SDS011;64187;51.010;13.792;2024-03-06T09:29:16;38.03;;;19.05;;
75603;SDS011;64187;51.010;13.792;2024-03-06T09:34:15;32.70;;;17.70;;
75603;SDS011;64187;51.010;13.792;2024-03-06T09:39:15;35.22;;;18.55;;
75603;SDS011;64187;51.010;13.792;2024-03-06T09:44:15;34.67;;;19.73;;
75603;SDS011;64187;51.010;13.792;2024-03-06T09:49:17;37.97;;;18.15;;
75603;SDS011;64187;51.010;13.792;2024-03-06T09:54:17;32.85;;;17.80;;
75603;SDS011;64187;51.010;13.792;2024-03-06T09:59:18;36.63;;;18.70;;
75603;SDS011;64187;51.010;13.792;2024-03-06T10:04:24;31.73;;;17.20;;
75603;SDS011;64187;51.010;13.792;2024-03-06T10:09:27;31.42;;;15.75;;
75603;SDS011;64187;51.010;13.792;2024-03-06T10:14:26;33.58;;;17.75;;
75603;SDS011;64187;51.010;13.792;2024-03-06T10:19:27;37.83;;;20.80;;
75603;SDS011;64187;51.010;13.792;2024-03-06T10:24:28;37.47;;;19.83;;
75603;SDS011;64187;51.010;13.792;2024-03-06T10:29:28;37.40;;;19.38;;
75603;SDS011;64187;51.010;13.792;2024-03-06T10:34:28;41.25;;;20.35;;
75603;SDS011;64187;51.010;13.792;2024-03-06T10:39:30;37.78;;;19.73;;
75603;SDS011;64187;51.010;13.792;2024-03-06T10:44:36;38.72;;;19.65;;
75603;SDS011;64187;51.010;13.792;2024-03-06T10:49:46;37.03;;;20.10;;
75603;SDS011;64187;51.010;13.792;2024-03-06T10:54:46;36.05;;;18.65;;
75603;SDS011;64187;51.010;13.792;2024-03-06T10:59:47;39.60;;;20.73;;
75603;SDS011;64187;51.010;13.792;2024-03-06T11:04:47;38.75;;;19.30;;
75603;SDS011;64187;51.010;13.792;2024-03-06T11:09:46;41.80;;;20.38;;
75603;SDS011;64187;51.010;13.792;2024-03-06T11:14:48;42.75;;;20.40;;
75603;SDS011;64187;51.010;13.792;2024-03-06T11:24:58;38.33;;;19.98;;
75603;SDS011;64187;51.010;13.792;2024-03-06T11:35:11;37.50;;;18.98;;
75603;SDS011;64187;51.010;13.792;2024-03-06T11:40:10;36.03;;;17.95;;
75603;SDS011;64187;51.010;13.792;2024-03-06T11:45:20;28.50;;;16.10;;
75603;SDS011;64187;51.010;13.792;2024-03-06T11:50:21;32.28;;;17.17;;
75603;SDS011;64187;51.010;13.792;2024-03-06T11:55:20;35.67;;;19.67;;
75603;SDS011;64187;51.010;13.792;2024-03-06T12:00:22;36.08;;;19.25;;
75603;SDS011;64187;51.010;13.792;2024-03-06T12:05:24;36.42;;;19.33;;
75603;SDS011;64187;51.010;13.792;2024-03-06T12:10:25;34.50;;;18.85;;
75603;SDS011;64187;51.010;13.792;2024-03-06T12:15:24;39.58;;;19.88;;
75603;SDS011;64187;51.010;13.792;2024-03-06T12:20:23;40.60;;;20.77;;
75603;SDS011;64187;51.010;13.792;2024-03-06T12:25:24;47.53;;;22.77;;
75603;SDS011;64187;51.010;13.792;2024-03-06T12:30:24;44.47;;;21.67;;
75603;SDS011;64187;51.010;13.792;2024-03-06T12:35:24;47.05;;;23.23;;
75603;SDS011;64187;51.010;13.792;2024-03-06T12:40:26;47.00;;;24.27;;
75603;SDS011;64187;51.010;13.792;2024-03-06T12:45:27;44.60;;;23.13;;
75603;SDS011;64187;51.010;13.792;2024-03-06T12:50:26;41.20;;;20.15;;
75603;SDS011;64187;51.010;13.792;2024-03-06T12:55:24;38.63;;;19.67;;
75603;SDS011;64187;51.010;13.792;2024-03-06T13:00:24;37.90;;;20.52;;
75603;SDS011;64187;51.010;13.792;2024-03-06T13:05:23;37.03;;;18.50;;
75603;SDS011;64187;51.010;13.792;2024-03-06T13:10:22;38.08;;;18.13;;
75603;SDS011;64187;51.010;13.792;2024-03-06T13:15:21;34.70;;;18.38;;
75603;SDS011;64187;51.010;13.792;2024-03-06T13:20:21;31.05;;;17.25;;
75603;SDS011;64187;51.010;13.792;2024-03-06T13:25:20;31.35;;;16.13;;
75603;SDS011;64187;51.010;13.792;2024-03-06T13:30:19;30.08;;;16.83;;
75603;SDS011;64187;51.010;13.792;2024-03-06T13:35:18;27.90;;;16.75;;
75603;SDS011;64187;51.010;13.792;2024-03-06T13:40:17;35.67;;;17.08;;
75603;SDS011;64187;51.010;13.792;2024-03-06T13:45:16;35.03;;;15.00;;
75603;SDS011;64187;51.010;13.792;2024-03-06T13:50:15;26.67;;;14.73;;
75603;SDS011;64187;51.010;13.792;2024-03-06T13:55:16;27.02;;;14.93;;
75603;SDS011;64187;51.010;13.792;2024-03-06T14:00:16;30.90;;;16.60;;
75603;SDS011;64187;51.010;13.792;2024-03-06T14:05:18;27.70;;;14.45;;
75603;SDS011;64187;51.010;13.792;2024-03-06T14:10:23;27.90;;;14.73;;
75603;SDS011;64187;51.010;13.792;2024-03-06T14:15:23;25.33;;;13.75;;
75603;SDS011;64187;51.010;13.792;2024-03-06T14:20:22;25.35;;;15.50;;
75603;SDS011;64187;51.010;13.792;2024-03-06T14:25:22;25.00;;;14.18;;
75603;SDS011;64187;51.010;13.792;2024-03-06T14:30:21;26.90;;;13.18;;
75603;SDS011;64187;51.010;13.792;2024-03-06T14:35:20;24.10;;;13.10;;
75603;SDS011;64187;51.010;13.792;2024-03-06T14:40:19;22.45;;;13.40;;
75603;SDS011;64187;51.010;13.792;2024-03-06T14:45:19;23.73;;;14.48;;
75603;SDS011;64187;51.010;13.792;2024-03-06T14:50:18;23.52;;;12.93;;
75603;SDS011;64187;51.010;13.792;2024-03-06T14:55:17;22.23;;;12.82;;
75603;SDS011;64187;51.010;13.792;2024-03-06T15:00:17;24.02;;;12.85;;
75603;SDS011;64187;51.010;13.792;2024-03-06T15:05:19;20.75;;;12.30;;
75603;SDS011;64187;51.010;13.792;2024-03-06T15:10:19;20.60;;;11.57;;
75603;SDS011;64187;51.010;13.792;2024-03-06T15:15:18;26.38;;;14.07;;
75603;SDS011;64187;51.010;13.792;2024-03-06T15:20:18;22.00;;;12.27;;
75603;SDS011;64187;51.010;13.792;2024-03-06T15:25:17;22.33;;;12.32;;
75603;SDS011;64187;51.010;13.792;2024-03-06T15:30:16;24.77;;;12.27;;
75603;SDS011;64187;51.010;13.792;2024-03-06T15:35:15;22.27;;;11.80;;
75603;SDS011;64187;51.010;13.792;2024-03-06T15:40:14;20.80;;;11.65;;
75603;SDS011;64187;51.010;13.792;2024-03-06T15:45:13;24.13;;;12.40;;
75603;SDS011;64187;51.010;13.792;2024-03-06T15:50:12;19.98;;;10.93;;
75603;SDS011;64187;51.010;13.792;2024-03-06T15:55:11;18.05;;;9.30;;
75603;SDS011;64187;51.010;13.792;2024-03-06T16:00:10;16.65;;;9.77;;
75603;SDS011;64187;51.010;13.792;2024-03-06T16:05:13;15.32;;;7.97;;
75603;SDS011;64187;51.010;13.792;2024-03-06T16:10:12;22.50;;;10.43;;
75603;SDS011;64187;51.010;13.792;2024-03-06T16:15:11;18.00;;;9.65;;
75603;SDS011;64187;51.010;13.792;2024-03-06T16:20:10;15.52;;;8.88;;
75603;SDS011;64187;51.010;13.792;2024-03-06T16:25:09;16.98;;;8.90;;
75603;SDS011;64187;51.010;13.792;2024-03-06T16:30:08;17.30;;;8.63;;
75603;SDS011;64187;51.010;13.792;2024-03-06T16:35:08;16.20;;;8.85;;
75603;SDS011;64187;51.010;13.792;2024-03-06T16:40:07;15.93;;;9.50;;
75603;SDS011;64187;51.010;13.792;2024-03-06T16:45:08;18.35;;;9.02;;
75603;SDS011;64187;51.010;13.792;2024-03-06T16:50:10;15.07;;;9.23;;
75603;SDS011;64187;51.010;13.792;2024-03-06T16:55:09;13.85;;;7.82;;
75603;SDS011;64187;51.010;13.792;2024-03-06T17:00:08;13.30;;;8.10;;
75603;SDS011;64187;51.010;13.792;2024-03-06T17:05:08;11.32;;;7.22;;
75603;SDS011;64187;51.010;13.792;2024-03-06T17:10:09;11.68;;;6.45;;
75603;SDS011;64187;51.010;13.792;2024-03-06T17:15:08;10.65;;;7.22;;
75603;SDS011;64187;51.010;13.792;2024-03-06T17:20:08;13.85;;;7.82;;
75603;SDS011;64187;51.010;13.792;2024-03-06T17:25:07;14.70;;;7.57;;
75603;SDS011;64187;51.010;13.792;2024-03-06T17:30:07;12.60;;;8.85;;
75603;SDS011;64187;51.010;13.792;2024-03-06T17:35:07;12.27;;;8.20;;
75603;SDS011;64187;51.010;13.792;2024-03-06T17:40:07;13.82;;;7.80;;
75603;SDS011;64187;51.010;13.792;2024-03-06T17:45:09;14.52;;;9.25;;
75603;SDS011;64187;51.010;13.792;2024-03-06T17:50:08;14.07;;;8.20;;
75603;SDS011;64187;51.010;13.792;2024-03-06T17:55:11;13.80;;;7.68;;
75603;SDS011;64187;51.010;13.792;2024-03-06T18:00:10;15.05;;;9.75;;
75603;SDS011;64187;51.010;13.792;2024-03-06T18:05:13;17.85;;;9.23;;
75603;SDS011;64187;51.010;13.792;2024-03-06T18:10:12;17.83;;;9.93;;
75603;SDS011;64187;51.010;13.792;2024-03-06T18:15:11;16.05;;;10.40;;
75603;SDS011;64187;51.010;13.792;2024-03-06T18:20:10;16.33;;;9.43;;
75603;SDS011;64187;51.010;13.792;2024-03-06T18:25:10;16.45;;;8.95;;
75603;SDS011;64187;51.010;13.792;2024-03-06T18:30:09;16.50;;;9.30;;
75603;SDS011;64187;51.010;13.792;2024-03-06T18:35:08;17.58;;;8.70;;
75603;SDS011;64187;51.010;13.792;2024-03-06T18:40:07;16.90;;;9.52;;
75603;SDS011;64187;51.010;13.792;2024-03-06T18:45:06;17.90;;;10.18;;
75603;SDS011;64187;51.010;13.792;2024-03-06T18:50:06;28.67;;;15.50;;
75603;SDS011;64187;51.010;13.792;2024-03-06T18:55:06;18.83;;;10.73;;
75603;SDS011;64187;51.010;13.792;2024-03-06T19:00:05;18.20;;;10.32;;
75603;SDS011;64187;51.010;13.792;2024-03-06T19:05:05;16.67;;;9.25;;
75603;SDS011;64187;51.010;13.792;2024-03-06T19:10:05;16.05;;;9.45;;
75603;SDS011;64187;51.010;13.792;2024-03-06T19:15:05;17.77;;;10.00;;
75603;SDS011;64187;51.010;13.792;2024-03-06T19:20:05;18.73;;;9.73;;
75603;SDS011;64187;51.010;13.792;2024-03-06T19:25:08;18.30;;;9.75;;
75603;SDS011;64187;51.010;13.792;2024-03-06T19:30:07;16.83;;;9.43;;
75603;SDS011;64187;51.010;13.792;2024-03-06T19:35:08;17.65;;;8.75;;
75603;SDS011;64187;51.010;13.792;2024-03-06T19:40:07;15.13;;;8.52;;
75603;SDS011;64187;51.010;13.792;2024-03-06T19:45:07;18.50;;;9.30;;
75603;SDS011;64187;51.010;13.792;2024-03-06T19:50:08;18.33;;;9.75;;
75603;SDS011;64187;51.010;13.792;2024-03-06T19:55:07;19.15;;;9.93;;
75603;SDS011;64187;51.010;13.792;2024-03-06T20:00:07;20.73;;;10.15;;
75603;SDS011;64187;51.010;13.792;2024-03-06T20:05:10;17.67;;;10.63;;
75603;SDS011;64187;51.010;13.792;2024-03-06T20:10:13;17.48;;;9.40;;
75603;SDS011;64187;51.010;13.792;2024-03-06T20:15:12;12.88;;;7.28;;
75603;SDS011;64187;51.010;13.792;2024-03-06T20:20:11;16.05;;;10.00;;
75603;SDS011;64187;51.010;13.792;2024-03-06T20:25:11;18.40;;;10.27;;
75603;SDS011;64187;51.010;13.792;2024-03-06T20:35:30;17.75;;;10.90;;
75603;SDS011;64187;51.010;13.792;2024-03-06T20:40:29;17.08;;;9.68;;
75603;SDS011;64187;51.010;13.792;2024-03-06T20:45:28;19.85;;;11.48;;
75603;SDS011;64187;51.010;13.792;2024-03-06T20:50:27;17.92;;;10.45;;
75603;SDS011;64187;51.010;13.792;2024-03-06T20:55:26;18.40;;;10.63;;
75603;SDS011;64187;51.010;13.792;2024-03-06T21:00:25;19.52;;;11.07;;
75603;SDS011;64187;51.010;13.792;2024-03-06T21:05:24;20.08;;;12.18;;
75603;SDS011;64187;51.010;13.792;2024-03-06T21:10:23;21.20;;;11.38;;
75603;SDS011;64187;51.010;13.792;2024-03-06T21:15:22;22.48;;;12.20;;
75603;SDS011;64187;51.010;13.792;2024-03-06T21:20:23;22.60;;;11.80;;
75603;SDS011;64187;51.010;13.792;2024-03-06T21:25:22;18.40;;;11.30;;
75603;SDS011;64187;51.010;13.792;2024-03-06T21:30:22;21.35;;;11.43;;
75603;SDS011;64187;51.010;13.792;2024-03-06T21:35:21;20.45;;;11.68;;
75603;SDS011;64187;51.010;13.792;2024-03-06T21:40:23;21.60;;;11.73;;
75603;SDS011;64187;51.010;13.792;2024-03-06T21:45:22;19.92;;;11.35;;
75603;SDS011;64187;51.010;13.792;2024-03-06T21:50:24;19.38;;;11.13;;
75603;SDS011;64187;51.010;13.792;2024-03-06T21:55:23;20.58;;;11.65;;
75603;SDS011;64187;51.010;13.792;2024-03-06T22:00:22;20.30;;;11.90;;
75603;SDS011;64187;51.010;13.792;2024-03-06T22:05:21;21.98;;;11.38;;
75603;SDS011;64187;51.010;13.792;2024-03-06T22:10:20;18.80;;;10.52;;
75603;SDS011;64187;51.010;13.792;2024-03-06T22:15:18;20.90;;;11.20;;
75603;SDS011;64187;51.010;13.792;2024-03-06T22:20:17;21.38;;;11.68;;
75603;SDS011;64187;51.010;13.792;2024-03-06T22:25:17;25.75;;;12.43;;
75603;SDS011;64187;51.010;13.792;2024-03-06T22:30:17;21.23;;;11.95;;
75603;SDS011;64187;51.010;13.792;2024-03-06T22:35:15;22.27;;;12.27;;
75603;SDS011;64187;51.010;13.792;2024-03-06T22:40:14;21.33;;;10.55;;
75603;SDS011;64187;51.010;13.792;2024-03-06T22:45:13;22.55;;;11.25;;
75603;SDS011;64187;51.010;13.792;2024-03-06T22:50:12;21.02;;;11.40;;
75603;SDS011;64187;51.010;13.792;2024-03-06T22:55:11;20.38;;;10.80;;
75603;SDS011;64187;51.010;13.792;2024-03-06T23:00:10;24.48;;;12.00;;
75603;SDS011;64187;51.010;13.792;2024-03-06T23:05:27;21.80;;;12.02;;
75603;SDS011;64187;51.010;13.792;2024-03-06T23:10:26;20.63;;;11.50;;
75603;SDS011;64187;51.010;13.792;2024-03-06T23:15:25;22.13;;;12.65;;
75603;SDS011;64187;51.010;13.792;2024-03-06T23:20:24;24.50;;;12.48;;
75603;SDS011;64187;51.010;13.792;2024-03-06T23:25:23;26.70;;;13.40;;
75603;SDS011;64187;51.010;13.792;2024-03-06T23:30:23;27.35;;;13.60;;
75603;SDS011;64187;51.010;13.792;2024-03-06T23:35:22;29.33;;;14.30;;
75603;SDS011;64187;51.010;13.792;2024-03-06T23:40:22;28.98;;;13.65;;
75603;SDS011;64187;51.010;13.792;2024-03-06T23:45:21;30.60;;;15.88;;
75603;SDS011;64187;51.010;13.792;2024-03-06T23:50:20;30.42;;;13.75;;
75603;SDS011;64187;51.010;13.792;2024-03-06T23:55:21;29.30;;;14.73;;
